Time;durP1;ratioP1;P1;durP2;ratioP2;P2;SDS_P1;SDS_P2;PMS_P1;PMS_P2;Temp;Humidity;BMP_temperature;BMP_pressure;BME280_temperature;BME280_humidity;BME280_pressure;Samples;Min_cycle;Max_cycle;Signal;HPM_P1;HPM_P2
2021/09/28 00:00:09;;;;;;;3.23;2.73;;;24.50;56.10;;;;;;5064781;28;20386;-74
2021/09/28 00:02:35;;;;;;;3.10;2.75;;;24.50;56.20;;;;;;5056781;28;21361;-74
2021/09/28 00:05:01;;;;;;;3.10;2.80;;;24.50;56.20;;;;;;5064161;28;20388;-74
2021/09/28 00:07:26;;;;;;;3.47;2.88;;;24.50;56.10;;;;;;5064189;28;20391;-74
2021/09/28 00:09:52;;;;;;;4.27;3.17;;;24.40;56.10;;;;;;5064587;28;20412;-74
2021/09/28 00:12:19;;;;;;;3.50;2.90;;;24.40;56.00;;;;;;5064734;28;20440;-75
2021/09/28 00:14:45;;;;;;;3.65;3.10;;;24.40;56.10;;;;;;5063499;28;20399;-73
2021/09/28 00:17:11;;;;;;;3.13;2.75;;;24.40;56.00;;;;;;5096656;28;20403;-74
2021/09/28 00:19:38;;;;;;;4.45;2.88;;;24.40;55.90;;;;;;5056377;28;20411;-75
2021/09/28 00:22:04;;;;;;;3.63;2.90;;;24.40;55.80;;;;;;5065356;28;20748;-75
2021/09/28 00:24:31;;;;;;;3.35;2.78;;;24.40;55.80;;;;;;5064454;28;20435;-73
2021/09/28 00:26:56;;;;;;;3.30;2.97;;;24.40;56.00;;;;;;5063811;28;20778;-74
2021/09/28 00:29:22;;;;;;;3.67;2.88;;;24.40;55.90;;;;;;5080011;28;20415;-73
2021/09/28 00:31:47;;;;;;;3.70;2.90;;;24.40;55.80;;;;;;5065224;28;20399;-75
2021/09/28 00:34:13;;;;;;;3.90;2.60;;;24.40;56.00;;;;;;5064906;28;20767;-74
2021/09/28 00:36:39;;;;;;;3.03;2.70;;;24.40;56.00;;;;;;5065040;28;21022;-74
2021/09/28 00:39:04;;;;;;;3.17;2.80;;;24.30;56.00;;;;;;5065035;28;20400;-75
2021/09/28 00:41:30;;;;;;;3.63;3.00;;;24.30;56.00;;;;;;5064403;28;20395;-74
2021/09/28 00:43:57;;;;;;;3.38;2.70;;;24.40;56.10;;;;;;5064603;28;20394;-74
2021/09/28 00:46:24;;;;;;;3.63;2.80;;;24.30;56.50;;;;;;5064962;28;20835;-74
2021/09/28 00:48:50;;;;;;;3.10;2.80;;;24.30;56.00;;;;;;5064195;28;20927;-74
2021/09/28 00:51:17;;;;;;;3.10;2.80;;;24.30;56.00;;;;;;5063961;28;20437;-74
2021/09/28 00:53:44;;;;;;;3.63;2.60;;;24.30;56.10;;;;;;5064611;28;20441;-74
2021/09/28 00:56:14;;;;;;;2.93;2.50;;;24.30;55.90;;;;;;5064036;28;20388;-74
2021/09/28 00:58:40;;;;;;;3.35;2.75;;;24.30;56.00;;;;;;5064344;28;20414;-73
2021/09/28 01:01:07;;;;;;;3.03;2.60;;;24.30;56.00;;;;;;5064385;28;21333;-76
2021/09/28 01:03:33;;;;;;;3.33;3.00;;;24.30;56.00;;;;;;5064450;28;20395;-74
2021/09/28 01:06:00;;;;;;;3.10;2.80;;;24.30;55.90;;;;;;5064598;28;20577;-76
2021/09/28 01:08:26;;;;;;;3.55;2.38;;;24.30;56.00;;;;;;5063650;28;20420;-74
2021/09/28 01:10:53;;;;;;;2.53;2.25;;;24.30;55.90;;;;;;5063108;28;20411;-75
2021/09/28 01:13:19;;;;;;;3.00;2.58;;;24.30;55.90;;;;;;5062932;28;20418;-74
2021/09/28 01:16:05;;;;;;;3.03;2.53;;;24.30;55.50;;;;;;5063837;28;20481;-75
2021/09/28 01:18:33;;;;;;;3.10;2.60;;;24.20;55.80;;;;;;5063616;28;20469;-74
2021/09/28 01:21:03;;;;;;;3.40;2.50;;;24.20;55.80;;;;;;5063505;28;20445;-76
2021/09/28 01:23:29;;;;;;;2.88;2.40;;;24.20;55.70;;;;;;5063105;28;21020;-74
2021/09/28 01:25:55;;;;;;;2.80;2.50;;;24.20;55.80;;;;;;5063333;28;20425;-74
2021/09/28 01:28:21;;;;;;;5.82;2.30;;;24.20;55.90;;;;;;5063483;28;20775;-75
2021/09/28 01:30:47;;;;;;;2.80;2.40;;;24.20;55.90;;;;;;5063444;28;20410;-75
2021/09/28 01:33:15;;;;;;;3.20;2.67;;;24.20;55.80;;;;;;5052359;28;21046;-81
2021/09/28 01:35:41;;;;;;;2.83;2.55;;;24.20;55.90;;;;;;5063615;28;20751;-74
2021/09/28 01:38:07;;;;;;;3.22;2.50;;;24.20;55.80;;;;;;5053189;28;21320;-77
2021/09/28 01:40:34;;;;;;;3.63;2.47;;;24.20;55.80;;;;;;5063109;28;20475;-75
2021/09/28 01:43:10;;;;;;;3.17;2.47;;;24.20;55.60;;;;;;5053568;28;20997;-74
2021/09/28 01:45:40;;;;;;;3.20;2.60;;;24.20;55.50;;;;;;5061490;28;20896;-74
2021/09/28 01:48:07;;;;;;;3.40;2.63;;;24.20;55.60;;;;;;5062846;28;20415;-75
2021/09/28 01:50:34;;;;;;;2.90;2.60;;;24.20;55.60;;;;;;5062463;28;20398;-76
2021/09/28 01:53:00;;;;;;;2.58;2.25;;;24.10;55.50;;;;;;5062911;28;20406;-74
2021/09/28 01:55:26;;;;;;;3.10;2.60;;;24.20;55.60;;;;;;5062157;28;20722;-74
2021/09/28 01:57:56;;;;;;;2.88;2.40;;;24.20;55.60;;;;;;5062663;28;20871;-75
2021/09/28 02:00:22;;;;;;;3.90;2.60;;;24.10;55.50;;;;;;5063007;28;20392;-74
2021/09/28 02:02:48;;;;;;;2.67;2.45;;;24.10;55.50;;;;;;5063135;28;20387;-74
2021/09/28 02:05:14;;;;;;;3.37;2.43;;;24.10;55.50;;;;;;5063203;28;20410;-75
2021/09/28 02:07:39;;;;;;;2.70;2.40;;;24.20;55.50;;;;;;5063990;28;20408;-78
2021/09/28 02:10:06;;;;;;;3.20;2.57;;;24.10;55.50;;;;;;5063426;28;20513;-77
2021/09/28 02:12:32;;;;;;;2.80;2.50;;;24.10;55.30;;;;;;5063485;28;20801;-74
2021/09/28 02:14:57;;;;;;;3.15;2.53;;;24.10;55.40;;;;;;5061979;28;20391;-74
2021/09/28 02:17:23;;;;;;;3.30;2.80;;;24.10;55.40;;;;;;5054199;28;20914;-74
2021/09/28 02:19:49;;;;;;;3.03;2.60;;;24.10;55.50;;;;;;5053458;28;20767;-74
2021/09/28 02:22:14;;;;;;;3.43;2.53;;;24.10;55.50;;;;;;5053219;28;20390;-75
2021/09/28 02:24:40;;;;;;;3.00;2.55;;;24.00;55.50;;;;;;5064172;28;20418;-77
2021/09/28 02:27:06;;;;;;;2.97;2.50;;;24.10;55.50;;;;;;5067451;28;20493;-79
2021/09/28 02:29:31;;;;;;;3.40;2.45;;;24.10;55.40;;;;;;5067097;28;20977;-74
2021/09/28 02:31:57;;;;;;;3.90;2.47;;;24.00;55.40;;;;;;5067312;28;21337;-74
2021/09/28 02:34:23;;;;;;;2.80;2.33;;;24.00;55.40;;;;;;5067294;28;20483;-74
2021/09/28 02:36:49;;;;;;;3.43;2.60;;;24.10;55.40;;;;;;5066895;28;20746;-74
2021/09/28 02:39:14;;;;;;;3.10;2.80;;;24.00;55.40;;;;;;5066834;28;20434;-74
2021/09/28 02:41:40;;;;;;;3.30;2.90;;;24.00;55.40;;;;;;5062273;28;20479;-75
2021/09/28 02:44:06;;;;;;;3.17;2.70;;;24.00;55.30;;;;;;5067085;28;20839;-73
2021/09/28 02:46:32;;;;;;;2.80;2.45;;;24.00;55.50;;;;;;5066647;28;20376;-75
2021/09/28 02:48:58;;;;;;;2.42;2.22;;;24.10;55.50;;;;;;5066696;28;20430;-78
2021/09/28 02:51:24;;;;;;;3.05;2.45;;;24.00;55.40;;;;;;5053588;28;20974;-73
2021/09/28 02:53:50;;;;;;;2.53;2.30;;;24.00;55.40;;;;;;5066623;28;20756;-78
2021/09/28 02:56:16;;;;;;;5.50;2.73;;;24.00;55.40;;;;;;5057014;28;20883;-76
2021/09/28 02:58:41;;;;;;;2.80;2.38;;;24.00;55.40;;;;;;5058012;28;20992;-74
2021/09/28 03:01:07;;;;;;;3.20;2.73;;;24.00;55.50;;;;;;5066342;28;20387;-73
2021/09/28 03:03:34;;;;;;;2.60;2.40;;;24.00;55.50;;;;;;5066324;28;20395;-75
2021/09/28 03:05:59;;;;;;;2.92;2.63;;;24.00;55.50;;;;;;5066188;28;20409;-74
2021/09/28 03:08:25;;;;;;;3.17;2.50;;;24.00;55.60;;;;;;5065978;28;20911;-73
2021/09/28 03:10:51;;;;;;;2.90;2.22;;;24.00;55.50;;;;;;5059230;28;20423;-75
2021/09/28 03:13:16;;;;;;;2.60;2.40;;;24.00;55.40;;;;;;5065609;28;20410;-74
2021/09/28 03:15:42;;;;;;;3.10;2.75;;;24.00;55.50;;;;;;5066318;28;20741;-74
2021/09/28 03:18:08;;;;;;;3.57;2.80;;;23.90;55.50;;;;;;5066214;28;20872;-73
2021/09/28 03:20:35;;;;;;;2.90;2.30;;;24.00;55.50;;;;;;5059628;28;20490;-74
2021/09/28 03:23:01;;;;;;;3.83;2.80;;;23.90;55.40;;;;;;5065864;28;20383;-74
2021/09/28 03:25:26;;;;;;;2.97;2.67;;;23.90;55.50;;;;;;5063725;28;20399;-74
2021/09/28 03:27:52;;;;;;;3.00;2.70;;;23.90;55.50;;;;;;5065272;28;20899;-73
2021/09/28 03:30:18;;;;;;;3.30;2.70;;;23.90;55.40;;;;;;5064496;28;20928;-74
2021/09/28 03:32:44;;;;;;;3.60;2.70;;;23.90;55.50;;;;;;5064602;28;20399;-74
2021/09/28 03:35:10;;;;;;;3.53;2.67;;;23.90;55.40;;;;;;5064408;28;20487;-73
2021/09/28 03:37:42;;;;;;;2.95;2.65;;;23.90;55.30;;;;;;5061921;28;20394;-74
2021/09/28 03:40:10;;;;;;;3.03;2.50;;;23.90;55.50;;;;;;5055793;28;20392;-73
2021/09/28 03:42:36;;;;;;;3.20;2.53;;;23.90;55.40;;;;;;5065206;28;20388;-77
2021/09/28 03:45:02;;;;;;;3.00;2.60;;;23.90;55.50;;;;;;5058759;28;20469;-77
2021/09/28 03:47:28;;;;;;;3.10;2.80;;;23.90;55.50;;;;;;5064857;28;20469;-74
2021/09/28 03:49:53;;;;;;;3.65;2.72;;;23.90;55.50;;;;;;5064925;28;20421;-74
2021/09/28 03:52:19;;;;;;;3.28;2.90;;;23.90;55.50;;;;;;5063451;28;20498;-74
2021/09/28 03:54:44;;;;;;;3.67;2.77;;;23.90;55.50;;;;;;5064723;28;20383;-74
2021/09/28 03:57:10;;;;;;;3.22;2.67;;;23.90;55.50;;;;;;5064760;28;20391;-78
2021/09/28 03:59:36;;;;;;;3.00;2.70;;;23.90;55.50;;;;;;5064778;28;20396;-74
2021/09/28 04:02:02;;;;;;;3.17;2.67;;;23.90;55.50;;;;;;5065184;28;20395;-75
2021/09/28 04:04:27;;;;;;;3.85;2.72;;;23.80;55.40;;;;;;5065011;28;20410;-82
2021/09/28 04:06:53;;;;;;;3.43;2.73;;;23.90;55.40;;;;;;5064970;28;20387;-74
2021/09/28 04:09:18;;;;;;;3.30;3.00;;;23.90;55.50;;;;;;5064139;28;20433;-74
2021/09/28 04:11:45;;;;;;;3.23;2.80;;;23.80;55.40;;;;;;5064832;28;20740;-74
2021/09/28 04:14:12;;;;;;;3.22;2.70;;;23.80;55.40;;;;;;5063239;28;20398;-74
2021/09/28 04:16:38;;;;;;;3.00;2.55;;;23.80;55.40;;;;;;5064726;28;20380;-75
2021/09/28 04:19:04;;;;;;;3.40;2.75;;;23.80;55.30;;;;;;5064765;28;20426;-74
2021/09/28 04:21:29;;;;;;;3.50;2.83;;;23.80;55.30;;;;;;5064168;28;20897;-74
2021/09/28 04:23:55;;;;;;;2.80;2.50;;;23.80;55.30;;;;;;5064370;28;20474;-74
2021/09/28 04:26:21;;;;;;;3.10;2.70;;;23.80;55.40;;;;;;5064205;28;20383;-75
2021/09/28 04:28:48;;;;;;;3.03;2.70;;;23.80;55.30;;;;;;5057271;28;20403;-73
2021/09/28 04:31:16;;;;;;;3.70;2.70;;;23.80;55.40;;;;;;5062148;28;20410;-80
2021/09/28 04:33:43;;;;;;;3.20;2.70;;;23.80;55.40;;;;;;5064361;28;20422;-75
2021/09/28 04:36:09;;;;;;;3.00;2.70;;;23.80;55.40;;;;;;5052717;28;20423;-74
2021/09/28 04:38:35;;;;;;;3.55;2.67;;;23.80;55.40;;;;;;5064713;28;20902;-74
2021/09/28 04:41:01;;;;;;;2.97;2.50;;;23.80;55.40;;;;;;5062948;28;20964;-74
2021/09/28 04:43:26;;;;;;;3.35;2.75;;;23.80;55.30;;;;;;5064381;28;20945;-74
2021/09/28 04:45:52;;;;;;;3.40;2.53;;;23.80;55.40;;;;;;5062476;28;20936;-75
2021/09/28 04:48:18;;;;;;;2.83;2.53;;;23.80;55.30;;;;;;5062433;28;20391;-77
2021/09/28 04:50:46;;;;;;;3.65;2.97;;;23.70;55.30;;;;;;5064147;28;20764;-74
2021/09/28 04:53:12;;;;;;;3.20;2.85;;;23.80;55.40;;;;;;5063740;28;20383;-74
2021/09/28 04:55:38;;;;;;;3.28;2.83;;;23.80;55.40;;;;;;5063948;28;20888;-74
2021/09/28 04:58:04;;;;;;;4.85;2.60;;;23.80;55.30;;;;;;5062417;28;20484;-74
2021/09/28 05:00:30;;;;;;;4.80;2.80;;;23.70;55.60;;;;;;5063700;28;20391;-73
2021/09/28 05:02:56;;;;;;;3.97;2.83;;;23.70;55.70;;;;;;5053556;28;20497;-74
2021/09/28 05:05:22;;;;;;;3.35;2.78;;;23.80;55.80;;;;;;5052786;28;20466;-74
2021/09/28 05:07:47;;;;;;;4.57;3.28;;;23.80;55.90;;;;;;5062857;28;20802;-74
2021/09/28 05:10:13;;;;;;;4.23;3.13;;;23.70;55.80;;;;;;5056978;28;20419;-75
2021/09/28 05:12:38;;;;;;;4.30;3.40;;;23.70;55.80;;;;;;5063036;28;20383;-74
2021/09/28 05:15:05;;;;;;;4.97;3.30;;;23.70;55.90;;;;;;5052201;28;21273;-74
2021/09/28 05:17:30;;;;;;;4.88;3.42;;;23.70;55.70;;;;;;5062712;28;20391;-73
2021/09/28 05:19:56;;;;;;;4.80;2.83;;;23.60;55.70;;;;;;5048534;28;20400;-77
2021/09/28 05:22:21;;;;;;;5.18;2.97;;;23.70;54.60;;;;;;5064042;28;20388;-73
2021/09/28 05:24:47;;;;;;;4.13;3.00;;;23.70;55.10;;;;;;5056739;28;20387;-74
2021/09/28 05:27:14;;;;;;;4.32;2.90;;;23.70;55.70;;;;;;5064185;28;20787;-73
2021/09/28 05:29:40;;;;;;;4.20;3.10;;;23.60;56.20;;;;;;5063386;28;20431;-74
2021/09/28 05:32:06;;;;;;;4.43;3.13;;;23.70;55.90;;;;;;5064383;28;20474;-78
2021/09/28 05:34:32;;;;;;;5.10;3.35;;;23.60;56.70;;;;;;5065053;28;20450;-81
2021/09/28 05:36:58;;;;;;;5.78;3.10;;;23.60;56.20;;;;;;5063877;28;20383;-72
2021/09/28 05:39:24;;;;;;;4.50;3.03;;;23.70;56.10;;;;;;5064292;28;20455;-76
2021/09/28 05:41:50;;;;;;;5.90;3.20;;;23.70;56.00;;;;;;5054944;28;20557;-72
2021/09/28 05:44:15;;;;;;;4.50;2.90;;;23.60;56.50;;;;;;5064046;28;20403;-71
2021/09/28 05:46:41;;;;;;;6.05;3.15;;;23.70;56.10;;;;;;5063615;28;21335;-72
2021/09/28 05:49:07;;;;;;;5.90;3.53;;;23.60;56.30;;;;;;5063510;28;20951;-77
2021/09/28 05:51:35;;;;;;;6.10;3.60;;;23.60;56.30;;;;;;5052125;28;20728;-71
2021/09/28 05:54:02;;;;;;;4.57;3.40;;;23.70;56.50;;;;;;5063474;28;20385;-71
2021/09/28 05:56:28;;;;;;;6.18;3.42;;;23.70;56.40;;;;;;5064003;28;20485;-71
2021/09/28 05:58:53;;;;;;;6.82;3.55;;;23.60;56.40;;;;;;5066831;28;20797;-75
2021/09/28 06:01:19;;;;;;;7.13;3.40;;;23.70;56.80;;;;;;5062328;28;20411;-74
2021/09/28 06:03:45;;;;;;;5.45;3.58;;;23.70;57.00;;;;;;5059216;28;20427;-80
2021/09/28 06:06:11;;;;;;;7.30;3.67;;;23.70;56.90;;;;;;5055332;28;20898;-74
2021/09/28 06:08:38;;;;;;;7.07;4.17;;;23.70;57.30;;;;;;5060979;28;20504;-75
2021/09/28 06:11:05;;;;;;;8.80;4.13;;;23.70;57.30;;;;;;5061589;28;21343;-75
2021/09/28 06:13:31;;;;;;;8.82;4.90;;;23.70;57.70;;;;;;5061604;28;20391;-75
2021/09/28 06:15:57;;;;;;;7.67;4.60;;;23.60;57.00;;;;;;5061221;28;20453;-74
2021/09/28 06:18:23;;;;;;;8.02;4.47;;;23.70;56.90;;;;;;5062650;28;20391;-74
2021/09/28 06:20:49;;;;;;;11.68;4.72;;;23.60;57.40;;;;;;5062903;28;20438;-75
2021/09/28 06:23:15;;;;;;;11.00;4.45;;;23.70;57.20;;;;;;5063144;28;20383;-74
2021/09/28 06:25:41;;;;;;;9.68;4.60;;;23.60;57.10;;;;;;5062328;28;20388;-75
2021/09/28 06:28:06;;;;;;;10.60;4.50;;;23.70;57.00;;;;;;5062587;28;20428;-74
2021/09/28 06:30:32;;;;;;;7.53;4.10;;;23.60;57.00;;;;;;5062248;28;20423;-76
2021/09/28 06:32:57;;;;;;;6.60;4.40;;;23.60;57.10;;;;;;5062899;28;20483;-76
2021/09/28 06:35:24;;;;;;;6.10;4.10;;;23.60;57.10;;;;;;5055044;28;20537;-81
2021/09/28 06:37:50;;;;;;;7.43;4.03;;;23.60;57.20;;;;;;5062677;28;20384;-74
2021/09/28 06:40:16;;;;;;;5.70;4.40;;;23.70;57.70;;;;;;5051336;28;20403;-74
2021/09/28 06:42:42;;;;;;;6.97;4.30;;;23.70;57.10;;;;;;5062591;28;20397;-74
2021/09/28 06:45:07;;;;;;;9.82;4.72;;;23.60;57.40;;;;;;5062022;28;20386;-74
2021/09/28 06:47:34;;;;;;;9.07;4.88;;;23.70;56.90;;;;;;5061513;28;20433;-74
2021/09/28 06:49:59;;;;;;;9.82;4.60;;;23.60;56.70;;;;;;5062587;28;20423;-74
2021/09/28 06:52:25;;;;;;;7.85;4.30;;;23.60;56.90;;;;;;5061928;28;20403;-75
2021/09/28 06:54:51;;;;;;;8.77;4.50;;;23.60;57.00;;;;;;5063172;28;20387;-74
2021/09/28 06:57:17;;;;;;;8.18;4.28;;;23.60;56.60;;;;;;5062891;28;20475;-72
2021/09/28 06:59:42;;;;;;;6.43;3.83;;;23.50;56.60;;;;;;5061669;28;20388;-73
2021/09/28 07:02:08;;;;;;;6.72;3.88;;;23.60;56.80;;;;;;5061748;28;20740;-72
2021/09/28 07:04:33;;;;;;;7.47;3.97;;;23.60;57.00;;;;;;5062108;28;20481;-72
2021/09/28 07:07:01;;;;;;;6.27;3.63;;;23.60;57.30;;;;;;5062350;28;20408;-73
2021/09/28 07:09:27;;;;;;;10.18;4.35;;;23.60;56.70;;;;;;5060722;28;20426;-72
2021/09/28 07:11:53;;;;;;;7.30;4.20;;;23.60;56.90;;;;;;5062985;28;20392;-73
2021/09/28 07:14:18;;;;;;;6.70;4.00;;;23.60;56.90;;;;;;5065370;28;20392;-73
2021/09/28 07:16:44;;;;;;;7.40;3.93;;;23.60;57.40;;;;;;5065566;28;20848;-73
2021/09/28 07:19:10;;;;;;;7.05;4.35;;;23.60;56.90;;;;;;5065203;28;20588;-72
2021/09/28 07:21:35;;;;;;;8.33;4.50;;;23.50;57.10;;;;;;5065016;28;20387;-72
2021/09/28 07:24:01;;;;;;;6.22;4.10;;;23.50;56.90;;;;;;5065246;28;20493;-72
2021/09/28 07:26:26;;;;;;;11.13;4.53;;;23.50;56.80;;;;;;5065709;28;20384;-72
2021/09/28 07:28:52;;;;;;;9.97;4.50;;;23.60;57.10;;;;;;5065376;28;20458;-74
2021/09/28 07:31:18;;;;;;;7.38;4.45;;;23.70;56.90;;;;;;5065974;28;20399;-76
2021/09/28 07:33:43;;;;;;;7.03;4.40;;;23.60;56.70;;;;;;5065668;28;20372;-72
2021/09/28 07:36:09;;;;;;;8.57;4.70;;;23.60;56.70;;;;;;5065589;28;20613;-73
2021/09/28 07:38:35;;;;;;;9.27;4.27;;;23.50;56.80;;;;;;5065919;28;20390;-74
2021/09/28 07:41:01;;;;;;;9.70;4.32;;;23.50;56.70;;;;;;5065657;28;20491;-74
2021/09/28 07:43:27;;;;;;;6.65;4.40;;;23.40;56.80;;;;;;5065231;28;20403;-72
2021/09/28 07:45:52;;;;;;;5.93;4.60;;;23.40;56.80;;;;;;5056252;28;20755;-73
2021/09/28 07:48:18;;;;;;;12.53;8.57;;;23.40;57.00;;;;;;5065570;28;20879;-74
2021/09/28 07:50:44;;;;;;;15.40;9.57;;;23.40;57.30;;;;;;5097845;28;20447;-74
2021/09/28 07:53:09;;;;;;;9.82;7.18;;;23.40;57.60;;;;;;5065492;28;20863;-73
2021/09/28 07:55:36;;;;;;;13.15;9.27;;;23.40;59.00;;;;;;5064717;28;20400;-74
2021/09/28 07:58:02;;;;;;;12.00;7.57;;;23.40;59.20;;;;;;5064582;28;20434;-74
2021/09/28 08:00:28;;;;;;;11.02;6.63;;;23.40;59.80;;;;;;5065377;28;20764;-73
2021/09/28 08:02:54;;;;;;;9.48;6.07;;;23.40;58.30;;;;;;5055226;28;20399;-73
2021/09/28 08:05:19;;;;;;;12.75;7.20;;;23.40;58.30;;;;;;5065260;28;20395;-73
2021/09/28 08:07:45;;;;;;;9.30;6.50;;;23.40;58.60;;;;;;5064629;28;20396;-74
2021/09/28 08:10:13;;;;;;;12.05;6.40;;;23.40;58.40;;;;;;5065300;28;20416;-73
2021/09/28 08:12:39;;;;;;;9.50;6.18;;;23.40;58.90;;;;;;5064906;28;20883;-75
2021/09/28 08:15:06;;;;;;;11.68;6.32;;;23.40;58.90;;;;;;5064880;28;20794;-74
2021/09/28 08:17:32;;;;;;;8.77;5.70;;;23.40;58.60;;;;;;5057068;28;21009;-73
2021/09/28 08:19:58;;;;;;;7.95;5.47;;;23.30;58.50;;;;;;5064291;28;20390;-73
2021/09/28 08:22:24;;;;;;;8.32;5.70;;;23.40;58.40;;;;;;5064382;28;20395;-73
2021/09/28 08:24:54;;;;;;;8.20;5.57;;;23.30;58.40;;;;;;5064774;28;20391;-75
2021/09/28 08:30:09;;;;;;;7.68;5.63;;;23.30;58.30;;;;;;5063997;28;20419;-73
2021/09/28 08:32:35;;;;;;;12.07;5.72;;;23.30;58.60;;;;;;5063901;28;20384;-73
2021/09/28 08:35:01;;;;;;;10.73;5.60;;;23.30;58.50;;;;;;5053444;28;20419;-73
2021/09/28 08:37:27;;;;;;;8.15;5.47;;;23.30;58.50;;;;;;5057916;28;20872;-73
2021/09/28 08:39:54;;;;;;;11.60;5.70;;;23.30;58.70;;;;;;5049924;28;20408;-73
2021/09/28 08:42:21;;;;;;;7.63;5.55;;;23.30;59.00;;;;;;5063886;28;20396;-73
2021/09/28 08:44:47;;;;;;;7.97;5.65;;;23.30;59.50;;;;;;5064127;28;20395;-73
2021/09/28 08:47:13;;;;;;;7.13;5.53;;;23.30;59.50;;;;;;5064723;28;20462;-73
2021/09/28 08:49:40;;;;;;;8.23;5.63;;;23.30;60.10;;;;;;5059131;28;20498;-74
2021/09/28 08:52:06;;;;;;;9.82;5.93;;;23.40;60.70;;;;;;5064719;28;20379;-74
2021/09/28 08:54:32;;;;;;;8.73;5.82;;;23.50;60.60;;;;;;5064439;28;20384;-74
2021/09/28 08:56:58;;;;;;;8.18;6.00;;;23.50;60.70;;;;;;5064283;28;20457;-74
2021/09/28 08:59:38;;;;;;;8.98;7.50;;;23.50;60.30;;;;;;5063764;28;20395;-74
2021/09/28 09:02:08;;;;;;;9.30;6.20;;;23.70;59.80;;;;;;5063107;28;20399;-74
2021/09/28 09:04:35;;;;;;;8.30;6.00;;;23.70;60.80;;;;;;5051887;28;20810;-73
2021/09/28 09:07:19;;;;;;;9.23;6.00;;;23.70;60.40;;;;;;5061505;28;20393;-73
2021/09/28 09:09:47;;;;;;;9.48;6.97;;;23.70;60.70;;;;;;5063478;28;20438;-75
2021/09/28 09:12:13;;;;;;;10.73;6.50;;;23.80;61.80;;;;;;5079762;28;20736;-76
2021/09/28 09:14:40;;;;;;;12.63;7.33;;;23.80;61.50;;;;;;5079930;28;20815;-73
2021/09/28 09:17:06;;;;;;;9.90;7.47;;;23.80;61.90;;;;;;5063609;28;20388;-75
2021/09/28 09:19:35;;;;;;;10.33;7.60;;;23.80;62.50;;;;;;5058299;28;20536;-76
2021/09/28 09:22:06;;;;;;;10.65;7.20;;;23.80;63.30;;;;;;5078165;28;20403;-77
2021/09/28 09:24:50;;;;;;;11.93;8.38;;;23.90;64.50;;;;;;5077654;28;20478;-72
2021/09/28 09:27:26;;;;;;;12.35;8.63;;;23.90;65.40;;;;;;5062159;28;20399;-73
2021/09/28 09:30:20;;;;;;;11.25;8.80;;;23.90;66.00;;;;;;5063508;28;20492;-78
2021/09/28 09:32:48;;;;;;;14.38;9.48;;;24.00;66.50;;;;;;5063543;28;20487;-73
2021/09/28 09:35:32;;;;;;;14.80;9.33;;;24.00;67.00;;;;;;5062825;28;20399;-74
2021/09/28 09:38:13;;;;;;;15.50;9.82;;;24.00;67.70;;;;;;5063530;28;20379;-72
2021/09/28 09:40:41;;;;;;;25.83;14.05;;;24.10;67.60;;;;;;5063551;28;20384;-73
2021/09/28 09:43:08;;;;;;;17.17;11.23;;;24.20;72.60;;;;;;5040305;28;20432;-73
2021/09/28 09:45:35;;;;;;;13.85;9.30;;;24.70;67.60;;;;;;5038462;28;20395;-73
2021/09/28 09:48:20;;;;;;;14.75;9.75;;;24.50;65.60;;;;;;5079143;28;20418;-72
2021/09/28 09:51:14;;;;;;;16.15;10.38;;;24.40;65.40;;;;;;5063068;28;20430;-73
2021/09/28 09:53:54;;;;;;;21.23;12.63;;;24.30;66.30;;;;;;5061867;28;20391;-73
2021/09/28 09:56:21;;;;;;;30.73;18.27;;;24.30;67.50;;;;;;5063221;28;20429;-72
2021/09/28 09:58:47;;;;;;;31.15;20.60;;;24.40;67.70;;;;;;5063046;28;20983;-72
2021/09/28 10:01:14;;;;;;;29.38;19.67;;;24.40;68.20;;;;;;5062950;28;20404;-73
2021/09/28 10:03:41;;;;;;;31.07;23.40;;;24.50;68.60;;;;;;5062666;28;20440;-76
2021/09/28 10:06:07;;;;;;;29.95;20.67;;;24.50;70.50;;;;;;5063102;28;20388;-73
2021/09/28 10:08:34;;;;;;;23.10;18.30;;;24.90;70.50;;;;;;5048691;28;20437;-73
2021/09/28 10:11:00;;;;;;;16.23;12.45;;;25.00;67.90;;;;;;5097740;28;20425;-75
2021/09/28 10:13:45;;;;;;;16.95;13.45;;;24.80;65.60;;;;;;5061331;28;21109;-73
2021/09/28 10:16:33;;;;;;;24.45;17.50;;;24.70;66.90;;;;;;5062313;28;20399;-73
2021/09/28 10:19:00;;;;;;;30.33;22.65;;;24.70;69.40;;;;;;5054976;28;20396;-74
2021/09/28 10:21:43;;;;;;;25.63;20.20;;;24.80;70.70;;;;;;5062835;28;20395;-74
2021/09/28 10:24:18;;;;;;;25.40;18.45;;;24.80;70.50;;;;;;5062564;28;21234;-73
2021/09/28 10:26:55;;;;;;;19.42;14.52;;;24.80;70.40;;;;;;5062531;28;20399;-74
2021/09/28 10:29:40;;;;;;;18.20;13.10;;;24.80;70.10;;;;;;5062129;28;20534;-73
2021/09/28 10:32:24;;;;;;;16.02;11.98;;;24.90;68.60;;;;;;5062478;28;20403;-76
2021/09/28 10:35:14;;;;;;;15.00;10.13;;;24.90;69.60;;;;;;5061781;28;20387;-75
2021/09/28 10:37:56;;;;;;;13.13;9.20;;;24.90;68.70;;;;;;5048291;28;20396;-74
2021/09/28 10:40:22;;;;;;;24.90;22.30;;;24.80;70.00;;;;;;5095322;28;20965;-73
2021/09/28 10:42:52;;;;;;;24.02;21.55;;;25.20;68.10;;;;;;5063611;28;20421;-74
2021/09/28 10:45:19;;;;;;;16.75;14.40;;;25.20;67.40;;;;;;5063670;28;20383;-74
2021/09/28 10:47:47;;;;;;;15.65;12.63;;;25.10;66.60;;;;;;5066532;28;20391;-74
2021/09/28 10:50:22;;;;;;;12.50;9.02;;;25.10;65.80;;;;;;5099340;28;20450;-73
2021/09/28 10:52:49;;;;;;;11.93;8.30;;;25.00;66.00;;;;;;5067008;28;20379;-74
2021/09/28 10:55:18;;;;;;;13.95;8.02;;;25.10;66.80;;;;;;5066857;28;20403;-73
2021/09/28 11:00:24;;;;;;;12.02;7.78;;;25.20;70.80;;;;;;5066830;28;20399;-73
2021/09/28 11:03:00;;;;;;;21.08;19.13;;;25.20;69.30;;;;;;5066878;28;20756;-73
2021/09/28 11:05:31;;;;;;;92.43;83.85;;;25.20;67.70;;;;;;5066106;28;20404;-73
2021/09/28 11:08:01;;;;;;;71.80;64.60;;;25.20;66.50;;;;;;5065916;28;20406;-74
2021/09/28 11:10:28;;;;;;;52.30;47.10;;;25.20;65.70;;;;;;5066248;28;20457;-74
2021/09/28 11:12:54;;;;;;;39.72;35.67;;;25.20;65.20;;;;;;5066405;28;20423;-73
2021/09/28 11:15:22;;;;;;;29.23;26.05;;;25.10;64.60;;;;;;5072334;28;20419;-72
2021/09/28 11:17:48;;;;;;;22.25;19.65;;;25.10;64.10;;;;;;5065971;28;20724;-73
2021/09/28 11:20:30;;;;;;;21.13;18.65;;;25.20;63.90;;;;;;5066215;28;20384;-72
2021/09/28 11:23:09;;;;;;;14.05;11.40;;;25.40;62.70;;;;;;5065984;28;20437;-72
2021/09/28 11:25:37;;;;;;;12.20;8.68;;;25.40;62.80;;;;;;5056231;28;20471;-72
2021/09/28 11:28:28;;;;;;;11.60;8.40;;;25.30;62.70;;;;;;5065730;28;20885;-72
2021/09/28 11:31:03;;;;;;;8.90;6.80;;;25.30;62.70;;;;;;5063807;28;20476;-72
2021/09/28 11:33:37;;;;;;;9.55;6.35;;;25.20;62.00;;;;;;5055182;28;20896;-73
2021/09/28 11:36:07;;;;;;;9.27;5.60;;;25.20;62.30;;;;;;5066150;28;20400;-71
2021/09/28 11:38:35;;;;;;;8.43;5.32;;;25.20;62.20;;;;;;5065748;28;20469;-72
2021/09/28 11:41:08;;;;;;;7.40;5.43;;;25.10;62.30;;;;;;5055062;28;20465;-73
2021/09/28 11:43:35;;;;;;;7.22;5.13;;;25.10;62.20;;;;;;5097712;28;20388;-72
2021/09/28 11:46:05;;;;;;;7.43;4.75;;;25.10;62.10;;;;;;5065257;28;21200;-72
2021/09/28 11:48:36;;;;;;;7.35;4.70;;;25.10;61.10;;;;;;5058881;28;20418;-72
2021/09/28 11:51:13;;;;;;;9.15;5.40;;;25.10;60.60;;;;;;5065312;28;20420;-72
2021/09/28 11:53:43;;;;;;;9.52;4.50;;;25.10;60.80;;;;;;5064667;28;20422;-72
2021/09/28 11:56:09;;;;;;;8.27;4.60;;;25.10;60.50;;;;;;5065038;28;20446;-72
2021/09/28 11:58:36;;;;;;;10.10;4.68;;;25.00;60.40;;;;;;5064621;28;20935;-72
2021/09/28 12:01:05;;;;;;;9.10;4.63;;;25.00;61.30;;;;;;5065111;28;20392;-72
2021/09/28 12:03:34;;;;;;;7.95;4.10;;;25.00;61.10;;;;;;5064289;28;20575;-73
2021/09/28 12:08:41;;;;;;;7.35;4.70;;;24.90;60.50;;;;;;5063326;28;20915;-72
2021/09/28 12:11:07;;;;;;;10.43;4.78;;;24.80;60.50;;;;;;5063273;28;20399;-71
2021/09/28 12:13:34;;;;;;;7.25;4.90;;;24.80;61.10;;;;;;5063137;28;20382;-75
2021/09/28 12:16:02;;;;;;;8.35;5.10;;;24.80;60.60;;;;;;5062133;28;20395;-72
2021/09/28 12:18:29;;;;;;;8.05;5.35;;;24.70;60.40;;;;;;5062720;28;20388;-73
2021/09/28 12:21:12;;;;;;;11.02;4.93;;;24.70;60.20;;;;;;5062866;28;20860;-72
2021/09/28 12:23:39;;;;;;;10.55;5.35;;;24.70;59.70;;;;;;5063538;28;20395;-72
2021/09/28 12:26:20;;;;;;;8.40;5.25;;;24.70;60.00;;;;;;5064455;28;20854;-71
2021/09/28 12:28:46;;;;;;;10.73;5.00;;;24.60;59.60;;;;;;5065290;28;20403;-72
2021/09/28 12:31:12;;;;;;;9.13;5.20;;;24.60;60.60;;;;;;5060266;28;20388;-76
2021/09/28 12:33:40;;;;;;;7.85;4.93;;;24.70;61.80;;;;;;5064145;28;20379;-72
2021/09/28 12:36:08;;;;;;;8.68;4.90;;;24.60;61.00;;;;;;5060037;28;20418;-72
2021/09/28 12:38:34;;;;;;;7.93;4.88;;;24.60;60.20;;;;;;5060879;28;20398;-79
2021/09/28 12:41:06;;;;;;;7.07;4.10;;;24.60;60.00;;;;;;5064241;28;20404;-76
2021/09/28 12:43:32;;;;;;;6.10;4.40;;;24.60;59.80;;;;;;5066895;28;20380;-72
2021/09/28 12:46:02;;;;;;;9.50;4.78;;;24.60;59.80;;;;;;5070912;28;20395;-71
2021/09/28 12:48:40;;;;;;;6.75;5.40;;;24.60;59.60;;;;;;5070491;28;20396;-76
2021/09/28 12:51:11;;;;;;;7.85;6.28;;;24.60;59.60;;;;;;5067234;28;20415;-76
2021/09/28 12:53:38;;;;;;;9.60;6.90;;;24.60;59.30;;;;;;5065316;28;20395;-71